sensor_id;sensor_type;location;lat;lon;timestamp;pressure;altitude;pressure_sealevel;temperature;humidity
12073;BME280;6098;49.004;8.372;2024-03-23T00:57:28;99595.88;;;14.08;68.96
12073;BME280;6098;49.004;8.372;2024-03-23T01:12:20;99556.27;;;14.09;68.90
12073;BME280;6098;49.004;8.372;2024-03-23T01:27:13;99551.94;;;14.07;67.96
12073;BME280;6098;49.004;8.372;2024-03-23T01:42:05;99533.64;;;13.96;69.20
12073;BME280;6098;49.004;8.372;2024-03-23T01:56:57;99517.45;;;13.99;68.31
12073;BME280;6098;49.004;8.372;2024-03-23T02:11:49;99508.70;;;13.97;68.82
12073;BME280;6098;49.004;8.372;2024-03-23T02:26:42;99479.48;;;14.08;68.58
12073;BME280;6098;49.004;8.372;2024-03-23T02:41:33;99476.23;;;14.10;68.82
12073;BME280;6098;49.004;8.372;2024-03-23T02:56:25;99483.76;;;14.17;69.03
12073;BME280;6098;49.004;8.372;2024-03-23T03:26:26;99472.62;;;14.24;69.01
12073;BME280;6098;49.004;8.372;2024-03-23T03:41:18;99456.73;;;14.22;66.26
12073;BME280;6098;49.004;8.372;2024-03-23T03:56:09;99466.02;;;14.11;67.58
12073;BME280;6098;49.004;8.372;2024-03-23T04:11:00;99457.97;;;13.98;67.33
12073;BME280;6098;49.004;8.372;2024-03-23T04:25:51;99456.33;;;13.77;68.45
12073;BME280;6098;49.004;8.372;2024-03-23T04:40:42;99483.13;;;13.47;67.95
12073;BME280;6098;49.004;8.372;2024-03-23T04:55:34;99480.38;;;13.21;68.69
12073;BME280;6098;49.004;8.372;2024-03-23T05:10:26;99508.82;;;13.07;67.01
12073;BME280;6098;49.004;8.372;2024-03-23T05:25:18;99541.23;;;12.91;65.08
12073;BME280;6098;49.004;8.372;2024-03-23T05:40:11;99594.71;;;12.50;65.13
12073;BME280;6098;49.004;8.372;2024-03-23T05:55:05;99618.41;;;12.31;66.62
12073;BME280;6098;49.004;8.372;2024-03-23T06:09:59;99651.75;;;11.91;67.03
12073;BME280;6098;49.004;8.372;2024-03-23T06:24:51;99697.58;;;11.86;66.66
12073;BME280;6098;49.004;8.372;2024-03-23T06:39:45;99713.05;;;11.78;65.86
12073;BME280;6098;49.004;8.372;2024-03-23T06:54:34;99761.65;;;11.46;66.32
12073;BME280;6098;49.004;8.372;2024-03-23T07:09:25;99806.31;;;11.03;65.94
12073;BME280;6098;49.004;8.372;2024-03-23T07:24:16;99846.06;;;10.77;66.45
12073;BME280;6098;49.004;8.372;2024-03-23T07:39:07;99877.16;;;10.83;67.48
12073;BME280;6098;49.004;8.372;2024-03-23T07:53:59;99932.30;;;10.85;67.84
12073;BME280;6098;49.004;8.372;2024-03-23T08:08:57;99949.53;;;11.03;67.06
12073;BME280;6098;49.004;8.372;2024-03-23T08:23:50;99977.19;;;11.26;63.28
12073;BME280;6098;49.004;8.372;2024-03-23T08:38:42;99986.98;;;11.42;57.37
12073;BME280;6098;49.004;8.372;2024-03-23T08:53:34;99991.98;;;11.58;52.89
12073;BME280;6098;49.004;8.372;2024-03-23T09:08:25;100012.51;;;11.90;51.23
12073;BME280;6098;49.004;8.372;2024-03-23T09:23:16;100019.55;;;11.74;47.78
12073;BME280;6098;49.004;8.372;2024-03-23T09:38:07;100010.49;;;11.41;47.52
12073;BME280;6098;49.004;8.372;2024-03-23T09:52:57;100059.68;;;10.63;56.33
12073;BME280;6098;49.004;8.372;2024-03-23T10:07:51;100080.95;;;10.51;61.48
12073;BME280;6098;49.004;8.372;2024-03-23T10:22:46;100047.08;;;10.68;62.39
12073;BME280;6098;49.004;8.372;2024-03-23T10:37:39;100082.59;;;10.74;62.66
12073;BME280;6098;49.004;8.372;2024-03-23T10:52:30;100062.30;;;10.93;63.39
12073;BME280;6098;49.004;8.372;2024-03-23T11:22:17;100041.81;;;11.89;57.80
12073;BME280;6098;49.004;8.372;2024-03-23T11:37:13;100030.50;;;12.28;58.72
12073;BME280;6098;49.004;8.372;2024-03-23T11:52:05;100034.31;;;12.14;59.24
12073;BME280;6098;49.004;8.372;2024-03-23T12:07:14;100004.95;;;12.75;57.19
12073;BME280;6098;49.004;8.372;2024-03-23T12:22:13;99972.25;;;13.14;53.04
12073;BME280;6098;49.004;8.372;2024-03-23T12:37:08;99971.67;;;12.84;45.28
12073;BME280;6098;49.004;8.372;2024-03-23T12:51:58;100018.38;;;12.14;48.55
12073;BME280;6098;49.004;8.372;2024-03-23T13:06:43;100054.05;;;9.88;63.38
12073;BME280;6098;49.004;8.372;2024-03-23T13:21:34;100015.15;;;10.51;60.63
12073;BME280;6098;49.004;8.372;2024-03-23T13:36:29;100022.46;;;10.94;54.24
12073;BME280;6098;49.004;8.372;2024-03-23T13:51:24;99999.59;;;11.47;54.49
12073;BME280;6098;49.004;8.372;2024-03-23T14:06:18;100035.69;;;11.33;61.36
12073;BME280;6098;49.004;8.372;2024-03-23T14:21:08;100035.62;;;10.77;56.70
12073;BME280;6098;49.004;8.372;2024-03-23T14:35:58;99962.15;;;10.70;57.68
12073;BME280;6098;49.004;8.372;2024-03-23T14:50:58;99964.30;;;11.89;52.48
12073;BME280;6098;49.004;8.372;2024-03-23T15:05:59;99957.54;;;12.51;48.96
12073;BME280;6098;49.004;8.372;2024-03-23T15:20:55;99951.41;;;12.25;50.69
12073;BME280;6098;49.004;8.372;2024-03-23T15:35:41;99948.64;;;11.48;55.31
12073;BME280;6098;49.004;8.372;2024-03-23T15:50:30;99961.45;;;11.04;65.11
12073;BME280;6098;49.004;8.372;2024-03-23T16:05:20;99919.94;;;10.56;63.14
12073;BME280;6098;49.004;8.372;2024-03-23T16:20:12;99971.45;;;10.21;62.44
12073;BME280;6098;49.004;8.372;2024-03-23T16:34:59;99974.61;;;8.68;70.29
12073;BME280;6098;49.004;8.372;2024-03-23T16:49:50;99943.27;;;8.70;74.30
12073;BME280;6098;49.004;8.372;2024-03-23T17:04:41;99973.49;;;8.63;73.36
12073;BME280;6098;49.004;8.372;2024-03-23T17:19:32;100001.88;;;8.58;74.96
12073;BME280;6098;49.004;8.372;2024-03-23T17:34:23;99994.95;;;8.05;79.52
12073;BME280;6098;49.004;8.372;2024-03-23T17:49:13;99981.60;;;8.09;82.53
12073;BME280;6098;49.004;8.372;2024-03-23T18:04:04;99960.84;;;7.99;82.13
12073;BME280;6098;49.004;8.372;2024-03-23T18:18:55;99955.26;;;7.83;82.88
12073;BME280;6098;49.004;8.372;2024-03-23T18:33:46;99969.55;;;7.76;81.52
12073;BME280;6098;49.004;8.372;2024-03-23T18:48:37;99957.63;;;7.51;79.23
12073;BME280;6098;49.004;8.372;2024-03-23T19:03:29;99966.10;;;7.48;77.25
12073;BME280;6098;49.004;8.372;2024-03-23T19:18:20;99965.28;;;7.33;76.39
12073;BME280;6098;49.004;8.372;2024-03-23T19:33:11;99948.50;;;7.36;77.77
12073;BME280;6098;49.004;8.372;2024-03-23T19:48:03;99938.16;;;7.29;78.13
12073;BME280;6098;49.004;8.372;2024-03-23T20:02:55;99955.80;;;7.27;77.81
12073;BME280;6098;49.004;8.372;2024-03-23T20:17:46;99961.81;;;7.32;74.89
12073;BME280;6098;49.004;8.372;2024-03-23T20:32:38;99942.17;;;7.28;73.73
12073;BME280;6098;49.004;8.372;2024-03-23T20:47:29;99940.53;;;7.38;73.19
12073;BME280;6098;49.004;8.372;2024-03-23T21:02:21;99926.84;;;7.53;72.82
12073;BME280;6098;49.004;8.372;2024-03-23T21:17:12;99913.66;;;7.53;72.86
12073;BME280;6098;49.004;8.372;2024-03-23T21:32:03;99909.51;;;7.70;73.88
12073;BME280;6098;49.004;8.372;2024-03-23T21:46:55;99886.67;;;7.82;73.99
12073;BME280;6098;49.004;8.372;2024-03-23T22:01:46;99868.14;;;7.84;74.28
12073;BME280;6098;49.004;8.372;2024-03-23T22:16:36;99844.38;;;7.85;73.72
12073;BME280;6098;49.004;8.372;2024-03-23T22:31:26;99824.59;;;7.85;72.87
12073;BME280;6098;49.004;8.372;2024-03-23T22:46:18;99811.98;;;7.80;72.83
12073;BME280;6098;49.004;8.372;2024-03-23T23:01:11;99793.59;;;7.55;76.65
12073;BME280;6098;49.004;8.372;2024-03-23T23:16:02;99809.66;;;7.35;79.79
12073;BME280;6098;49.004;8.372;2024-03-23T23:30:58;99805.50;;;6.90;86.40
12073;BME280;6098;49.004;8.372;2024-03-23T23:45:51;99795.08;;;6.60;88.83
